Time,TemperatureF,DewpointF,PressureIn,WindDirection,WindDirectionDegrees,WindSpeedMPH,WindSpeedGustMPH,Humidity,HourlyPrecipIn,Conditions,Clouds,dailyrainin,SoftwareType,DateUTC
2013-08-22 00:14:00,80.0,76.0,30.01,East,83,13.0,23.0,88,0.00,,,0.34,,2013-08-22 04:14:00,
2013-08-22 00:23:00,80.0,75.0,30.02,ENE,64,15.0,22.0,85,0.02,,,0.36,,2013-08-22 04:23:00,
2013-08-22 00:44:00,80.0,75.0,30.02,NE,47,10.0,18.0,84,0.03,,,0.37,,2013-08-22 04:44:00,
2013-08-22 00:54:00,81.0,77.0,30.01,East,93,8.0,14.0,87,0.04,,,0.38,,2013-08-22 04:54:00,
2013-08-22 01:13:00,81.0,77.0,30.02,ENE,62,8.0,13.0,89,0.05,,,0.39,,2013-08-22 05:13:00,
2013-08-22 01:23:00,81.0,78.0,30.03,ENE,73,8.0,16.0,91,0.06,,,0.42,,2013-08-22 05:23:00,
2013-08-22 01:43:00,81.0,77.0,30.03,East,80,14.0,21.0,88,0.05,,,0.42,,2013-08-22 05:43:00,
2013-08-22 01:53:00,81.0,75.0,30.02,East,89,9.0,15.0,83,0.04,,,0.42,,2013-08-22 05:53:00,
2013-08-22 02:12:00,81.0,75.0,30.02,East,91,7.0,13.0,82,0.02,,,0.42,,2013-08-22 06:12:00,
2013-08-22 02:22:00,81.0,75.0,30.01,East,98,9.0,14.0,83,0.00,,,0.42,,2013-08-22 06:22:00,
2013-08-22 02:42:00,82.0,77.0,30.00,East,79,9.0,17.0,85,0.00,,,0.42,,2013-08-22 06:42:00,
2013-08-22 02:52:00,79.0,73.0,30.02,East,87,21.0,40.0,82,0.00,,,0.42,,2013-08-22 06:52:00,
2013-08-22 03:12:00,78.0,72.0,30.01,East,81,13.0,29.0,83,0.00,,,0.42,,2013-08-22 07:12:00,
2013-08-22 03:22:00,77.0,71.0,30.00,ENE,69,10.0,22.0,83,0.01,,,0.43,,2013-08-22 07:22:00,
2013-08-22 03:42:00,78.0,72.0,29.99,ENE,70,9.0,15.0,83,0.01,,,0.43,,2013-08-22 07:42:00,
2013-08-22 03:53:00,79.0,74.0,29.98,ENE,60,6.0,9.0,84,0.01,,,0.43,,2013-08-22 07:53:00,
2013-08-22 04:12:00,80.0,75.0,29.98,ENE,65,6.0,12.0,86,0.02,,,0.44,,2013-08-22 08:12:00,
2013-08-22 04:22:00,79.0,75.0,29.99,ESE,107,13.0,26.0,87,0.03,,,0.46,,2013-08-22 08:22:00,
2013-08-22 04:53:00,79.0,75.0,29.98,NE,55,10.0,14.0,87,0.05,,,0.48,,2013-08-22 08:53:00,
2013-08-22 05:11:00,79.0,75.0,29.98,SE,126,7.0,14.0,89,0.05,,,0.49,,2013-08-22 09:11:00,
2013-08-22 05:22:00,79.0,75.0,29.99,East,88,12.0,22.0,87,0.04,,,0.50,,2013-08-22 09:22:00,
2013-08-22 05:43:00,79.0,75.0,29.98,East,99,10.0,17.0,87,0.04,,,0.50,,2013-08-22 09:43:00,
2013-08-22 05:54:00,80.0,76.0,29.97,East,98,11.0,18.0,87,0.04,,,0.52,,2013-08-22 09:54:00,
2013-08-22 06:12:00,80.0,75.0,29.97,East,89,11.0,18.0,85,0.03,,,0.52,,2013-08-22 10:12:00,
2013-08-22 06:23:00,81.0,76.0,29.97,East,93,11.0,20.0,86,0.03,,,0.53,,2013-08-22 10:23:00,
2013-08-22 06:33:00,81.0,77.0,29.98,ESE,105,10.0,16.0,87,0.02,,,0.54,,2013-08-22 10:33:00,
2013-08-22 06:42:00,81.0,76.0,29.97,East,96,12.0,19.0,86,0.04,,,0.54,,2013-08-22 10:42:00,
2013-08-22 08:42:00,83.0,77.0,30.00,ENE,66,11.0,17.0,83,0.00,,,0.41,,2013-08-22 12:42:00,
2013-08-22 08:52:00,84.0,78.0,30.00,East,79,9.0,16.0,83,0.00,,,0.41,,2013-08-22 12:52:00,
2013-08-22 09:12:00,85.0,79.0,30.00,East,82,10.0,15.0,83,0.00,,,0.41,,2013-08-22 13:12:00,
2013-08-22 09:22:00,85.0,78.0,30.00,East,97,9.0,22.0,81,0.00,,,0.41,,2013-08-22 13:22:00,
2013-08-22 09:52:00,85.0,79.0,30.00,ENE,68,10.0,16.0,82,0.00,,,0.41,,2013-08-22 13:52:00,
2013-08-22 10:11:00,85.0,79.0,30.01,East,90,10.0,19.0,82,0.00,,,0.41,,2013-08-22 14:11:00,
2013-08-22 10:22:00,86.0,79.0,30.00,East,88,11.0,18.0,79,0.00,,,0.41,,2013-08-22 14:22:00,
2013-08-22 10:52:00,86.0,79.0,30.00,East,90,10.0,18.0,80,0.00,,,0.41,,2013-08-22 14:52:00,
2013-08-22 11:12:00,84.0,78.0,30.00,East,89,11.0,18.0,81,0.00,,,0.41,,2013-08-22 15:12:00,
2013-08-22 11:22:00,84.0,78.0,30.01,East,80,7.0,16.0,81,0.00,,,0.41,,2013-08-22 15:22:00,
2013-08-22 11:43:00,85.0,79.0,30.01,East,91,10.0,17.0,82,0.00,,,0.41,,2013-08-22 15:43:00,
2013-08-22 11:55:00,86.0,80.0,30.01,East,100,11.0,18.0,82,0.00,,,0.41,,2013-08-22 15:55:00,
2013-08-22 12:14:00,86.0,79.0,30.01,East,93,13.0,16.0,80,0.00,,,0.41,,2013-08-22 16:14:00,
2013-08-22 12:25:00,87.0,80.0,30.00,East,87,13.0,17.0,80,0.00,,,0.41,,2013-08-22 16:25:00,
2013-08-22 12:43:00,86.0,78.0,30.00,East,87,11.0,21.0,78,0.00,,,0.41,,2013-08-22 16:43:00,
2013-08-22 12:54:00,87.0,77.0,30.00,ESE,110,12.0,18.0,73,0.00,,,0.41,,2013-08-22 16:54:00,
2013-08-22 13:12:00,87.0,78.0,30.00,East,93,12.0,16.0,74,0.00,,,0.41,,2013-08-22 17:12:00,
2013-08-22 13:24:00,86.0,78.0,30.00,East,97,10.0,16.0,76,0.00,,,0.41,,2013-08-22 17:24:00,
2013-08-22 13:43:00,86.0,79.0,30.00,ENE,64,8.0,15.0,80,0.00,,,0.41,,2013-08-22 17:43:00,
2013-08-22 13:53:00,87.0,80.0,29.99,NE,50,11.0,17.0,80,0.00,,,0.41,,2013-08-22 17:53:00,
2013-08-22 14:12:00,87.0,80.0,29.99,ENE,77,9.0,15.0,80,0.00,,,0.41,,2013-08-22 18:12:00,
2013-08-22 14:22:00,88.0,81.0,29.99,East,81,9.0,14.0,80,0.00,,,0.41,,2013-08-22 18:22:00,
2013-08-22 14:43:00,88.0,81.0,29.98,ENE,58,10.0,15.0,80,0.00,,,0.41,,2013-08-22 18:43:00,
2013-08-22 14:52:00,86.0,79.0,29.98,East,81,10.0,19.0,81,0.00,,,0.41,,2013-08-22 18:52:00,
2013-08-22 15:11:00,86.0,79.0,29.98,East,81,10.0,21.0,81,0.00,,,0.41,,2013-08-22 19:11:00,
2013-08-22 15:22:00,86.0,79.0,29.97,East,89,11.0,18.0,81,0.00,,,0.41,,2013-08-22 19:22:00,
2013-08-22 15:42:00,86.0,79.0,29.97,East,80,10.0,17.0,80,0.00,,,0.41,,2013-08-22 19:42:00,
2013-08-22 15:53:00,87.0,80.0,29.97,NE,44,9.0,18.0,80,0.00,,,0.41,,2013-08-22 19:53:00,
2013-08-22 16:12:00,87.0,80.0,29.96,ENE,65,10.0,14.0,79,0.00,,,0.41,,2013-08-22 20:12:00,
2013-08-22 16:23:00,86.0,79.0,29.96,ENE,76,12.0,16.0,80,0.00,,,0.41,,2013-08-22 20:23:00,
2013-08-22 16:42:00,86.0,79.0,29.96,NE,54,12.0,16.0,80,0.00,,,0.41,,2013-08-22 20:42:00,
2013-08-22 16:52:00,84.0,77.0,29.95,East,81,10.0,17.0,79,0.00,,,0.41,,2013-08-22 20:52:00,
2013-08-22 17:13:00,85.0,78.0,29.95,ENE,70,12.0,18.0,80,0.00,,,0.41,,2013-08-22 21:13:00,
2013-08-22 17:22:00,85.0,78.0,29.94,ENE,63,6.0,19.0,79,0.00,,,0.41,,2013-08-22 21:22:00,
2013-08-22 17:44:00,86.0,80.0,29.93,East,90,10.0,14.0,82,0.00,,,0.41,,2013-08-22 21:44:00,
2013-08-22 17:54:00,86.0,79.0,29.92,ENE,72,11.0,18.0,81,0.00,,,0.41,,2013-08-22 21:54:00,
2013-08-22 18:13:00,86.0,79.0,29.93,East,81,11.0,17.0,80,0.00,,,0.41,,2013-08-22 22:13:00,
2013-08-22 18:25:00,86.0,79.0,29.93,East,94,9.0,18.0,80,0.00,,,0.41,,2013-08-22 22:25:00,
2013-08-22 18:42:00,85.0,78.0,29.92,East,83,9.0,15.0,81,0.00,,,0.41,,2013-08-22 22:42:00,
2013-08-22 18:53:00,85.0,78.0,29.93,ENE,66,10.0,16.0,81,0.00,,,0.41,,2013-08-22 22:53:00,
2013-08-22 19:12:00,85.0,78.0,29.93,NE,39,10.0,18.0,80,0.00,,,0.41,,2013-08-22 23:12:00,
2013-08-22 19:23:00,85.0,78.0,29.94,ENE,63,8.0,15.0,80,0.00,,,0.41,,2013-08-22 23:23:00,
2013-08-22 19:42:00,84.0,78.0,29.95,ENE,76,11.0,16.0,81,0.00,,,0.41,,2013-08-22 23:42:00,
2013-08-22 19:53:00,84.0,78.0,29.95,ENE,71,10.0,18.0,81,0.00,,,0.41,,2013-08-22 23:53:00,
2013-08-22 20:12:00,84.0,78.0,29.96,ENE,67,7.0,18.0,81,0.00,,,0.41,,2013-08-23 00:12:00,
2013-08-22 20:23:00,84.0,78.0,29.96,ESE,110,10.0,17.0,82,0.00,,,0.41,,2013-08-23 00:23:00,
2013-08-22 20:42:00,84.0,78.0,29.96,ENE,72,8.0,17.0,82,0.00,,,0.41,,2013-08-23 00:42:00,
2013-08-22 20:52:00,84.0,77.0,29.97,ENE,76,8.0,19.0,79,0.00,,,0.41,,2013-08-23 00:52:00,
2013-08-22 21:11:00,84.0,78.0,29.97,ESE,104,9.0,13.0,82,0.00,,,0.41,,2013-08-23 01:11:00,
2013-08-22 21:22:00,84.0,78.0,29.97,ENE,74,8.0,14.0,83,0.00,,,0.41,,2013-08-23 01:22:00,
2013-08-22 21:42:00,84.0,78.0,29.96,ENE,74,9.0,16.0,83,0.00,,,0.41,,2013-08-23 01:42:00,
2013-08-22 21:52:00,84.0,78.0,29.97,ENE,72,8.0,15.0,83,0.00,,,0.41,,2013-08-23 01:52:00,
2013-08-22 22:11:00,84.0,78.0,29.97,East,92,8.0,14.0,82,0.00,,,0.41,,2013-08-23 02:11:00,
2013-08-22 22:23:00,84.0,78.0,29.98,ENE,77,6.0,13.0,83,0.00,,,0.37,,2013-08-23 02:23:00,
2013-08-22 22:43:00,84.0,79.0,29.98,East,80,8.0,15.0,84,0.00,,,0.37,,2013-08-23 02:43:00,
2013-08-22 22:52:00,84.0,79.0,29.98,ESE,106,9.0,16.0,84,0.00,,,0.37,,2013-08-23 02:52:00,
2013-08-22 23:12:00,84.0,79.0,29.98,East,81,8.0,15.0,84,0.00,,,0.37,,2013-08-23 03:12:00,
2013-08-22 23:23:00,84.0,78.0,29.99,ENE,64,13.0,18.0,82,0.00,,,0.21,,2013-08-23 03:23:00,
2013-08-22 23:55:00,84.0,79.0,29.98,ESE,116,8.0,15.0,84,0.00,,,0.21,,2013-08-23 03:55:00,